createdAt,value
2017-09-26T00:00:29.427Z,99368.02
2017-09-26T00:02:56.916Z,99370.27
2017-09-26T00:05:24.432Z,99375.44
2017-09-26T00:07:51.888Z,99369.48
2017-09-26T00:10:19.385Z,99369.36
2017-09-26T00:12:46.860Z,99364.61
2017-09-26T00:15:14.320Z,99371.09
2017-09-26T00:17:41.830Z,99360.75
2017-09-26T00:20:09.285Z,99366.19
2017-09-26T00:22:36.768Z,99362.76
2017-09-26T00:25:04.237Z,99367.81
2017-09-26T00:27:31.748Z,99369.14
2017-09-26T00:29:59.253Z,99365.41
2017-09-26T00:32:26.710Z,99364.48
2017-09-26T00:34:54.201Z,99361.06
2017-09-26T00:37:21.676Z,99359.73
2017-09-26T00:39:49.182Z,99354.69
2017-09-26T00:42:16.656Z,99363.20
2017-09-26T00:44:44.101Z,99354.55
2017-09-26T00:47:11.513Z,99363.72
2017-09-26T00:49:38.970Z,99359.34
2017-09-26T00:52:06.378Z,99360.13
2017-09-26T00:54:34.601Z,99365.57
2017-09-26T00:57:02.045Z,99362.41
2017-09-26T00:59:29.442Z,99365.83
2017-09-26T01:01:56.880Z,99368.61
2017-09-26T01:04:24.314Z,99370.48
2017-09-26T01:09:52.467Z,99371.00
2017-09-26T01:12:19.919Z,99367.02
2017-09-26T01:14:47.381Z,99371.81
2017-09-26T01:17:14.879Z,99374.04
2017-09-26T01:19:42.347Z,99366.20
2017-09-26T01:22:10.088Z,99363.01
2017-09-26T01:24:37.586Z,99365.66
2017-09-26T01:27:05.062Z,99369.14
2017-09-26T01:29:32.578Z,99365.55
2017-09-26T01:32:00.060Z,99364.38
2017-09-26T01:34:27.533Z,99363.71
2017-09-26T01:36:55.008Z,99365.83
2017-09-26T01:39:22.489Z,99357.58
2017-09-26T01:41:49.964Z,99360.19
2017-09-26T01:44:17.442Z,99364.03
2017-09-26T01:46:44.892Z,99360.62
2017-09-26T01:49:12.373Z,99360.72
2017-09-26T01:51:39.892Z,99361.09
2017-09-26T01:54:07.378Z,99368.78
2017-09-26T01:56:36.797Z,99365.70
2017-09-26T01:59:05.064Z,99365.84
2017-09-26T02:01:32.548Z,99360.81
2017-09-26T02:04:00.034Z,99361.59
2017-09-26T02:06:27.526Z,99363.04
2017-09-26T02:08:54.996Z,99363.94
2017-09-26T02:11:22.511Z,99360.25
2017-09-26T02:13:49.982Z,99361.05
2017-09-26T02:16:17.441Z,99359.31
2017-09-26T02:18:44.934Z,99358.36
2017-09-26T02:21:12.391Z,99362.08
2017-09-26T02:23:39.890Z,99361.97
2017-09-26T02:26:07.360Z,99359.08
2017-09-26T02:28:34.859Z,99356.45
2017-09-26T02:31:02.344Z,99361.06
2017-09-26T02:33:29.826Z,99361.72
2017-09-26T02:35:57.290Z,99355.73
2017-09-26T02:38:24.738Z,99361.63
2017-09-26T02:40:52.234Z,99351.95
2017-09-26T02:43:19.731Z,99355.66
2017-09-26T02:45:47.208Z,99350.31
2017-09-26T02:48:14.699Z,99351.88
2017-09-26T02:50:42.154Z,99354.78
2017-09-26T02:53:09.662Z,99353.34
2017-09-26T02:55:37.167Z,99345.66
2017-09-26T02:58:04.633Z,99354.38
2017-09-26T03:00:32.132Z,99356.70
2017-09-26T03:02:59.603Z,99350.95
2017-09-26T03:05:27.087Z,99355.05
2017-09-26T03:07:54.554Z,99352.13
2017-09-26T03:10:22.085Z,99351.88
2017-09-26T03:12:50.286Z,99351.63
2017-09-26T03:15:17.773Z,99352.13
2017-09-26T03:17:45.255Z,99356.34
2017-09-26T03:20:12.710Z,99358.59
2017-09-26T03:22:40.342Z,99362.44
2017-09-26T03:25:07.929Z,99361.20
2017-09-26T03:27:35.388Z,99365.37
2017-09-26T03:30:02.899Z,99367.70
2017-09-26T03:32:30.354Z,99369.44
2017-09-26T03:34:57.835Z,99369.31
2017-09-26T03:37:25.334Z,99370.47
2017-09-26T03:39:52.830Z,99366.84
2017-09-26T03:42:20.293Z,99371.50
2017-09-26T03:44:47.813Z,99373.72
2017-09-26T03:47:15.281Z,99374.77
2017-09-26T03:49:42.768Z,99374.56
2017-09-26T03:52:10.249Z,99373.47
2017-09-26T03:54:37.764Z,99371.84
2017-09-26T03:57:05.239Z,99379.52
2017-09-26T03:59:32.737Z,99368.19
2017-09-26T04:02:00.254Z,99390.42
2017-09-26T04:04:27.754Z,99385.30
2017-09-26T04:06:55.227Z,99378.27
2017-09-26T04:09:22.740Z,99377.89
2017-09-26T04:11:50.224Z,99364.65
2017-09-26T04:14:17.745Z,99376.89
2017-09-26T04:16:45.197Z,99370.38
2017-09-26T04:19:12.696Z,99349.92
2017-09-26T04:21:40.197Z,99372.34
2017-09-26T04:24:07.690Z,99375.72
2017-09-26T04:26:35.196Z,99379.66
2017-09-26T04:29:02.668Z,99381.41
2017-09-26T04:31:30.162Z,99384.20
2017-09-26T04:33:57.686Z,99385.33
2017-09-26T04:36:25.176Z,99385.22
2017-09-26T04:38:52.679Z,99385.59
2017-09-26T04:41:20.153Z,99394.20
2017-09-26T04:43:47.638Z,99384.38
2017-09-26T04:46:15.106Z,99388.74
2017-09-26T04:48:42.608Z,99397.79
2017-09-26T04:51:10.132Z,99398.73
2017-09-26T04:53:37.585Z,99398.16
2017-09-26T04:56:05.218Z,99400.95
2017-09-26T04:58:32.676Z,99392.39
2017-09-26T05:01:00.201Z,99402.03
2017-09-26T05:03:27.696Z,99405.64
2017-09-26T05:05:55.215Z,99407.59
2017-09-26T05:08:22.707Z,99406.05
2017-09-26T05:10:50.164Z,99417.66
2017-09-26T05:13:18.677Z,99414.25
2017-09-26T05:15:46.199Z,99419.41
2017-09-26T05:18:13.766Z,99417.28
2017-09-26T05:20:41.253Z,99418.86
2017-09-26T05:23:08.785Z,99416.48
2017-09-26T05:25:36.261Z,99423.59
2017-09-26T05:28:03.872Z,99427.30
2017-09-26T05:30:31.354Z,99412.20
2017-09-26T05:32:59.428Z,99436.13
2017-09-26T05:35:26.885Z,99422.05
2017-09-26T05:37:54.350Z,99438.28
2017-09-26T05:40:21.851Z,99436.59
2017-09-26T05:42:49.336Z,99439.31
2017-09-26T05:45:17.611Z,99439.48
2017-09-26T05:47:45.109Z,99443.53
2017-09-26T05:50:12.618Z,99439.38
2017-09-26T05:52:40.186Z,99448.73
2017-09-26T05:55:07.741Z,99448.80
2017-09-26T05:57:35.232Z,99450.48
2017-09-26T06:00:02.819Z,99448.47
2017-09-26T06:02:30.322Z,99450.48
2017-09-26T06:04:57.823Z,99443.11
2017-09-26T06:07:25.426Z,99436.73
2017-09-26T06:09:52.991Z,99438.59
2017-09-26T06:12:20.494Z,99442.16
2017-09-26T06:14:48.476Z,99445.43
2017-09-26T06:17:16.105Z,99441.81
2017-09-26T06:19:43.565Z,99442.67
2017-09-26T06:22:11.252Z,99440.29
2017-09-26T06:24:38.839Z,99439.38
2017-09-26T06:27:06.353Z,99445.74
2017-09-26T06:29:33.874Z,99446.11
2017-09-26T06:32:01.375Z,99439.80
2017-09-26T06:34:28.892Z,99444.31
2017-09-26T06:36:56.395Z,99451.89
2017-09-26T06:39:23.933Z,99449.24
2017-09-26T06:41:51.394Z,99450.19
2017-09-26T06:44:18.896Z,99446.63
2017-09-26T06:46:46.379Z,99455.20
2017-09-26T06:49:13.936Z,99456.52
2017-09-26T06:51:41.413Z,99460.77
2017-09-26T06:54:08.903Z,99458.55
2017-09-26T06:56:36.401Z,99452.27
2017-09-26T06:59:03.941Z,99455.73
2017-09-26T07:01:31.493Z,99429.25
2017-09-26T07:03:59.051Z,99456.34
2017-09-26T07:06:26.669Z,99458.52
2017-09-26T07:08:54.164Z,99456.70
2017-09-26T07:11:21.702Z,99453.72
2017-09-26T07:13:49.201Z,99463.04
2017-09-26T07:16:16.715Z,99464.70
2017-09-26T07:18:44.185Z,99462.16
2017-09-26T07:21:11.680Z,99466.77
2017-09-26T07:23:39.172Z,99471.62
2017-09-26T07:26:06.681Z,99464.14
2017-09-26T07:28:34.251Z,99463.69
2017-09-26T07:31:01.758Z,99454.58
2017-09-26T07:33:29.244Z,99452.60
2017-09-26T07:35:56.716Z,99454.73
2017-09-26T07:38:24.211Z,99443.60
2017-09-26T07:40:51.737Z,99448.69
2017-09-26T07:43:19.275Z,99455.62
2017-09-26T07:45:46.753Z,99457.09
2017-09-26T07:48:14.331Z,99459.06
2017-09-26T07:50:41.878Z,99457.34
2017-09-26T07:53:09.358Z,99458.66
2017-09-26T07:55:36.894Z,99458.52
2017-09-26T07:58:04.379Z,99458.80
2017-09-26T08:00:32.090Z,99460.26
2017-09-26T08:02:59.561Z,99459.55
2017-09-26T08:05:27.316Z,99464.98
2017-09-26T08:07:55.116Z,99471.29
2017-09-26T08:10:22.603Z,99473.38
2017-09-26T08:12:50.148Z,99474.41
2017-09-26T08:15:17.647Z,99472.78
2017-09-26T08:17:45.156Z,99471.65
2017-09-26T08:20:12.645Z,99474.52
2017-09-26T08:22:40.161Z,99475.30
2017-09-26T08:25:07.903Z,99481.63
2017-09-26T08:27:35.392Z,99481.66
2017-09-26T08:30:02.856Z,99416.58
2017-09-26T08:32:30.922Z,99481.92
2017-09-26T08:34:58.432Z,99477.25
2017-09-26T08:37:25.934Z,99474.42
2017-09-26T08:39:53.468Z,99474.33
2017-09-26T08:42:20.953Z,99470.06
2017-09-26T08:44:48.448Z,99471.08
2017-09-26T08:47:15.923Z,99466.77
2017-09-26T08:49:43.431Z,99473.64
2017-09-26T08:52:10.907Z,99466.33
2017-09-26T08:54:38.406Z,99458.51
2017-09-26T08:57:05.923Z,99460.03
2017-09-26T08:59:33.459Z,99464.30
2017-09-26T09:02:00.957Z,99463.80
2017-09-26T09:04:28.511Z,99456.62
2017-09-26T09:06:56.037Z,99455.66
2017-09-26T09:09:23.530Z,99455.48
2017-09-26T09:11:51.071Z,99455.30
2017-09-26T09:14:18.845Z,99454.44
2017-09-26T09:16:46.342Z,99453.12
2017-09-26T09:19:13.821Z,99444.75
2017-09-26T09:21:41.352Z,99451.86
2017-09-26T09:24:08.838Z,99451.53
2017-09-26T09:26:36.366Z,99442.72
2017-09-26T09:29:03.891Z,99443.66
2017-09-26T09:31:31.423Z,99444.95
2017-09-26T09:33:58.925Z,99446.55
2017-09-26T09:36:26.406Z,99443.88
2017-09-26T09:38:53.903Z,99446.58
2017-09-26T09:41:21.422Z,99450.30
2017-09-26T09:43:48.957Z,99452.13
2017-09-26T09:46:16.525Z,99454.14
2017-09-26T09:48:43.996Z,99447.22
2017-09-26T09:51:11.546Z,99451.47
2017-09-26T09:53:39.036Z,99446.63
2017-09-26T09:56:06.576Z,99454.41
2017-09-26T09:58:34.063Z,99443.80
2017-09-26T10:01:01.563Z,99451.23
2017-09-26T10:03:29.721Z,99452.17
2017-09-26T10:05:57.241Z,99454.90
2017-09-26T10:08:24.799Z,99454.67
2017-09-26T10:10:52.346Z,99449.17
2017-09-26T10:13:19.902Z,99445.70
2017-09-26T10:15:47.398Z,99449.05
2017-09-26T10:18:14.939Z,99444.88
2017-09-26T10:20:42.438Z,99445.55
2017-09-26T10:23:09.965Z,99443.06
2017-09-26T10:25:37.526Z,99439.73
2017-09-26T10:28:05.090Z,99442.10
2017-09-26T10:30:32.591Z,99434.70
2017-09-26T10:33:00.120Z,99442.11
2017-09-26T10:35:27.656Z,99438.80
2017-09-26T10:37:55.250Z,99442.35
2017-09-26T10:40:22.778Z,99438.66
2017-09-26T10:42:50.419Z,99439.86
2017-09-26T10:45:17.943Z,99436.31
2017-09-26T10:47:45.553Z,99434.16
2017-09-26T10:50:13.056Z,99437.52
2017-09-26T10:52:40.581Z,99435.42
2017-09-26T10:55:08.120Z,99434.76
2017-09-26T10:57:35.706Z,99430.02
2017-09-26T11:00:03.222Z,99432.26
2017-09-26T11:02:31.724Z,99440.16
2017-09-26T11:04:59.446Z,99429.44
2017-09-26T11:07:26.941Z,99430.53
2017-09-26T11:09:54.500Z,99428.60
2017-09-26T11:12:21.981Z,99424.56
2017-09-26T11:14:49.524Z,99429.09
2017-09-26T11:17:17.597Z,99423.80
2017-09-26T11:19:45.112Z,99425.60
2017-09-26T11:22:12.634Z,99421.55
2017-09-26T11:24:40.158Z,99420.77
2017-09-26T11:27:08.188Z,99421.24
2017-09-26T11:29:35.693Z,99421.23
2017-09-26T11:32:03.300Z,99417.88
2017-09-26T11:34:31.693Z,99385.88
2017-09-26T11:37:00.317Z,99417.41
2017-09-26T11:39:27.802Z,99407.06
2017-09-26T11:41:55.338Z,99413.70
2017-09-26T11:44:22.857Z,99418.20
2017-09-26T11:46:50.550Z,99407.94
2017-09-26T11:49:18.030Z,99405.00
2017-09-26T11:51:45.567Z,99414.47
2017-09-26T11:54:13.142Z,99409.89
2017-09-26T11:56:40.650Z,99407.53
2017-09-26T11:59:08.174Z,99409.74
2017-09-26T12:01:35.695Z,99408.72
2017-09-26T12:04:03.228Z,99412.42
2017-09-26T12:06:30.733Z,99408.40
2017-09-26T12:08:58.646Z,99406.73
2017-09-26T12:11:26.165Z,99404.92
2017-09-26T12:13:59.304Z,99400.18
2017-09-26T12:16:26.866Z,99397.36
2017-09-26T12:18:54.420Z,99398.41
2017-09-26T12:21:21.910Z,99399.87
2017-09-26T12:23:49.382Z,99398.62
2017-09-26T12:26:16.921Z,99400.70
2017-09-26T12:28:44.391Z,99400.34
2017-09-26T12:31:11.917Z,99405.45
2017-09-26T12:33:39.401Z,99402.37
2017-09-26T12:36:06.910Z,99403.66
2017-09-26T12:38:34.459Z,99402.32
2017-09-26T12:41:01.985Z,99409.28
2017-09-26T12:43:29.569Z,99406.83
2017-09-26T12:45:57.160Z,99404.36
2017-09-26T12:48:24.674Z,99403.64
2017-09-26T12:50:52.156Z,99407.88
2017-09-26T12:53:19.660Z,99406.70
2017-09-26T12:55:47.150Z,99404.69
2017-09-26T12:58:14.727Z,99409.92
2017-09-26T13:00:42.274Z,99411.13
2017-09-26T13:03:09.800Z,99403.22
2017-09-26T13:05:37.307Z,99409.86
2017-09-26T13:08:04.841Z,99411.98
2017-09-26T13:10:32.350Z,99414.49
2017-09-26T13:12:59.841Z,99414.91
2017-09-26T13:15:27.337Z,99413.00
2017-09-26T13:17:54.897Z,99411.97
2017-09-26T13:20:22.465Z,99414.80
2017-09-26T13:22:49.917Z,99408.67
2017-09-26T13:25:17.416Z,99413.09
2017-09-26T13:27:44.940Z,99415.89
2017-09-26T13:30:12.420Z,99413.72
2017-09-26T13:32:40.768Z,99416.97
2017-09-26T13:35:08.282Z,99415.25
2017-09-26T13:37:35.841Z,99419.15
2017-09-26T13:40:03.368Z,99420.10
2017-09-26T13:42:30.985Z,99413.48
2017-09-26T13:44:58.502Z,99413.45
2017-09-26T13:47:26.014Z,99414.80
2017-09-26T13:49:53.477Z,99413.30
2017-09-26T13:52:20.970Z,99415.91
2017-09-26T13:54:49.057Z,99416.94
2017-09-26T13:57:16.572Z,99421.27
2017-09-26T13:59:44.048Z,99412.59
2017-09-26T14:02:11.553Z,99417.79
2017-09-26T14:04:39.068Z,99415.42
2017-09-26T14:07:06.602Z,99411.64
2017-09-26T14:09:34.353Z,99421.16
2017-09-26T14:12:01.877Z,99416.14
2017-09-26T14:14:29.405Z,99420.41
2017-09-26T14:16:57.798Z,99426.63
2017-09-26T14:19:25.339Z,99379.72
2017-09-26T14:21:52.788Z,99419.61
2017-09-26T14:24:20.348Z,99419.93
2017-09-26T14:26:48.685Z,99419.75
2017-09-26T14:29:16.232Z,99410.17
2017-09-26T14:31:43.746Z,99415.65
2017-09-26T14:34:11.341Z,99418.42
2017-09-26T14:36:38.852Z,99418.12
2017-09-26T14:39:06.445Z,99423.13
2017-09-26T14:41:34.006Z,99417.48
2017-09-26T14:44:01.535Z,99424.02
2017-09-26T14:46:29.050Z,99420.83
2017-09-26T14:48:56.564Z,99414.58
2017-09-26T14:51:24.713Z,99417.08
2017-09-26T14:53:52.274Z,99417.77
2017-09-26T14:56:19.954Z,99421.30
2017-09-26T14:58:47.477Z,99419.95
2017-09-26T15:01:15.087Z,99416.30
2017-09-26T15:03:42.606Z,99417.55
2017-09-26T15:06:10.788Z,99422.75
2017-09-26T15:08:38.288Z,99419.63
2017-09-26T15:11:05.773Z,99428.30
2017-09-26T15:13:33.273Z,99428.12
2017-09-26T15:16:00.791Z,99429.68
2017-09-26T15:18:28.390Z,99428.87
2017-09-26T15:20:55.933Z,99425.78
2017-09-26T15:23:24.423Z,99427.26
2017-09-26T15:25:51.951Z,99430.48
2017-09-26T15:28:19.486Z,99429.33
2017-09-26T15:30:47.006Z,99428.52
2017-09-26T15:33:14.490Z,99431.00
2017-09-26T15:35:42.016Z,99432.77
2017-09-26T15:38:09.589Z,99435.23
2017-09-26T15:40:37.102Z,99432.09
2017-09-26T15:43:04.595Z,99435.72
2017-09-26T15:45:32.060Z,99433.44
2017-09-26T15:47:59.549Z,99437.92
2017-09-26T15:50:27.010Z,99437.66
2017-09-26T15:52:54.531Z,99434.76
2017-09-26T15:55:22.004Z,99439.80
2017-09-26T15:57:49.542Z,99434.67
2017-09-26T16:00:17.031Z,99440.55
2017-09-26T16:02:44.553Z,99446.63
2017-09-26T16:05:12.003Z,99438.70
2017-09-26T16:07:39.520Z,99442.53
2017-09-26T16:10:06.994Z,99447.60
2017-09-26T16:12:34.497Z,99442.70
2017-09-26T16:15:01.998Z,99450.51
2017-09-26T16:17:29.449Z,99449.94
2017-09-26T16:19:56.958Z,99447.82
2017-09-26T16:22:24.423Z,99452.80
2017-09-26T16:24:51.905Z,99446.36
2017-09-26T16:27:19.372Z,99449.19
2017-09-26T16:29:46.873Z,99452.09
2017-09-26T16:32:14.329Z,99446.00
2017-09-26T16:34:41.805Z,99455.95
2017-09-26T16:37:09.276Z,99458.02
2017-09-26T16:39:37.135Z,99459.48
2017-09-26T16:42:04.616Z,99456.47
2017-09-26T16:44:32.091Z,99450.03
2017-09-26T16:46:59.583Z,99466.00
2017-09-26T16:49:27.105Z,99460.95
2017-09-26T16:51:54.601Z,99456.67
2017-09-26T16:54:22.069Z,99453.71
2017-09-26T16:56:49.594Z,99456.82
2017-09-26T16:59:17.069Z,99459.19
2017-09-26T17:01:44.566Z,99459.19
2017-09-26T17:04:12.048Z,99459.64
2017-09-26T17:06:39.522Z,99459.47
2017-09-26T17:09:07.012Z,99459.55
2017-09-26T17:11:34.497Z,99461.58
2017-09-26T17:14:02.005Z,99466.14
2017-09-26T17:16:29.474Z,99465.73
2017-09-26T17:18:56.977Z,99472.28
2017-09-26T17:21:24.467Z,99472.42
2017-09-26T17:23:51.924Z,99479.17
2017-09-26T17:26:19.497Z,99483.21
2017-09-26T17:28:47.048Z,99474.69
2017-09-26T17:31:14.578Z,99478.50
2017-09-26T17:33:42.060Z,99484.56
2017-09-26T17:36:09.550Z,99480.61
2017-09-26T17:38:37.007Z,99493.72
2017-09-26T17:41:04.495Z,99497.47
2017-09-26T17:43:32.003Z,99493.77
2017-09-26T17:45:59.515Z,99500.91
2017-09-26T17:48:26.992Z,99496.85
2017-09-26T17:50:54.505Z,99500.92
2017-09-26T17:53:21.990Z,99502.33
2017-09-26T17:55:49.489Z,99503.03
2017-09-26T17:58:17.011Z,99507.98
2017-09-26T18:00:44.493Z,99506.02
2017-09-26T18:03:12.024Z,99508.61
2017-09-26T18:05:39.504Z,99517.35
2017-09-26T18:08:07.032Z,99512.36
2017-09-26T18:10:34.488Z,99519.48
2017-09-26T18:13:01.994Z,99525.28
2017-09-26T18:15:29.500Z,99525.35
2017-09-26T18:17:56.990Z,99531.81
2017-09-26T18:20:24.515Z,99535.28
2017-09-26T18:22:52.062Z,99537.80
2017-09-26T18:25:19.547Z,99546.36
2017-09-26T18:27:47.951Z,99541.61
2017-09-26T18:30:15.444Z,99549.08
2017-09-26T18:32:42.960Z,99550.06
2017-09-26T18:35:10.453Z,99542.39
2017-09-26T18:37:38.006Z,99551.34
2017-09-26T18:40:05.524Z,99551.08
2017-09-26T18:42:33.037Z,99554.82
2017-09-26T18:45:00.544Z,99551.78
2017-09-26T18:47:28.069Z,99553.69
2017-09-26T18:49:55.546Z,99551.63
2017-09-26T18:52:23.113Z,99549.89
2017-09-26T18:54:50.612Z,99552.03
2017-09-26T18:57:18.140Z,99553.09
2017-09-26T18:59:45.669Z,99557.44
2017-09-26T19:02:13.185Z,99553.37
2017-09-26T19:04:40.706Z,99557.04
2017-09-26T19:07:08.183Z,99556.94
2017-09-26T19:09:35.776Z,99559.55
2017-09-26T19:12:03.261Z,99557.58
2017-09-26T19:14:30.757Z,99560.28
2017-09-26T19:16:58.248Z,99566.05
2017-09-26T19:19:25.768Z,99565.61
2017-09-26T19:21:53.253Z,99568.78
2017-09-26T19:24:20.924Z,99573.69
2017-09-26T19:26:48.452Z,99567.23
2017-09-26T19:29:15.942Z,99568.39
2017-09-26T19:31:43.492Z,99566.81
2017-09-26T19:34:10.979Z,99576.45
2017-09-26T19:36:38.500Z,99568.86
2017-09-26T19:39:05.970Z,99569.77
2017-09-26T19:41:33.478Z,99565.45
2017-09-26T19:44:00.942Z,99572.44
2017-09-26T19:46:28.479Z,99564.56
2017-09-26T19:48:56.005Z,99566.78
2017-09-26T19:51:23.471Z,99569.80
2017-09-26T19:53:51.013Z,99569.98
2017-09-26T19:56:18.531Z,99567.44
2017-09-26T19:58:46.088Z,99571.77
2017-09-26T20:01:13.564Z,99575.81
2017-09-26T20:03:41.085Z,99576.39
2017-09-26T20:06:08.565Z,99575.73
2017-09-26T20:08:36.182Z,99571.66
2017-09-26T20:11:04.680Z,99572.16
2017-09-26T20:13:32.181Z,99576.80
2017-09-26T20:15:59.726Z,99575.78
2017-09-26T20:18:27.206Z,99576.04
2017-09-26T20:20:54.743Z,99575.20
2017-09-26T20:23:22.210Z,99575.14
2017-09-26T20:25:49.759Z,99574.36
2017-09-26T20:28:17.244Z,99577.45
2017-09-26T20:30:44.750Z,99581.37
2017-09-26T20:33:12.245Z,99584.00
2017-09-26T20:35:40.100Z,99584.41
2017-09-26T20:38:07.599Z,99583.50
2017-09-26T20:40:35.079Z,99583.91
2017-09-26T20:43:02.721Z,99589.72
2017-09-26T20:45:30.234Z,99596.45
2017-09-26T20:47:57.697Z,99600.34
2017-09-26T20:50:25.197Z,99595.41
2017-09-26T20:52:52.714Z,99592.86
2017-09-26T20:55:20.177Z,99592.70
2017-09-26T20:57:47.690Z,99578.56
2017-09-26T21:00:15.184Z,99590.42
2017-09-26T21:02:42.853Z,99593.75
2017-09-26T21:05:10.361Z,99594.14
2017-09-26T21:07:37.821Z,99602.02
2017-09-26T21:10:05.349Z,99594.82
2017-09-26T21:12:32.819Z,99595.75
2017-09-26T21:15:00.343Z,99595.06
2017-09-26T21:17:27.823Z,99600.01
2017-09-26T21:19:55.329Z,99601.34
2017-09-26T21:22:22.790Z,99596.92
2017-09-26T21:24:50.284Z,99598.17
2017-09-26T21:27:17.905Z,99598.63
2017-09-26T21:29:45.362Z,99602.33
2017-09-26T21:32:13.013Z,99604.30
2017-09-26T21:34:40.470Z,99600.98
2017-09-26T21:37:07.937Z,99602.08
2017-09-26T21:39:35.537Z,99603.81
2017-09-26T21:42:03.158Z,99602.89
2017-09-26T21:44:30.620Z,99605.83
2017-09-26T21:46:58.129Z,99605.91
2017-09-26T21:49:25.597Z,99605.94
2017-09-26T21:51:53.069Z,99603.28
2017-09-26T21:54:20.564Z,99604.32
2017-09-26T21:56:48.049Z,99605.02
2017-09-26T21:59:15.562Z,99603.33
2017-09-26T22:01:43.025Z,99598.52
2017-09-26T22:04:10.481Z,99601.41
2017-09-26T22:06:37.967Z,99601.56
2017-09-26T22:09:05.424Z,99601.70
2017-09-26T22:11:32.937Z,99601.12
2017-09-26T22:14:00.410Z,99599.40
2017-09-26T22:16:28.015Z,99603.39
2017-09-26T22:18:55.486Z,99604.59
2017-09-26T22:21:22.944Z,99602.20
2017-09-26T22:23:50.432Z,99604.71
2017-09-26T22:26:17.928Z,99600.31
2017-09-26T22:28:45.413Z,99602.87
2017-09-26T22:31:12.867Z,99605.80
2017-09-26T22:33:40.373Z,99602.23
2017-09-26T22:36:07.858Z,99602.43
2017-09-26T22:38:35.410Z,99592.95
2017-09-26T22:41:02.871Z,99592.41
2017-09-26T22:43:30.366Z,99589.58
2017-09-26T22:45:57.842Z,99592.62
2017-09-26T22:48:25.293Z,99595.67
2017-09-26T22:50:52.792Z,99593.11
2017-09-26T22:53:20.278Z,99591.52
2017-09-26T22:55:47.743Z,99589.16
2017-09-26T22:58:15.207Z,99588.81
2017-09-26T23:00:42.725Z,99588.55
2017-09-26T23:03:10.193Z,99591.36
2017-09-26T23:05:38.051Z,99589.34
2017-09-26T23:08:05.519Z,99588.41
2017-09-26T23:10:32.989Z,99592.40
2017-09-26T23:13:00.458Z,99587.50
2017-09-26T23:15:27.912Z,99581.66
2017-09-26T23:17:55.398Z,99579.00
2017-09-26T23:20:22.861Z,99578.22
2017-09-26T23:22:50.370Z,99577.85
2017-09-26T23:25:17.862Z,99578.55
2017-09-26T23:27:45.717Z,99577.08
2017-09-26T23:30:13.173Z,99580.10
2017-09-26T23:32:40.641Z,99577.20
2017-09-26T23:35:08.169Z,99578.24
2017-09-26T23:37:35.657Z,99577.72
2017-09-26T23:40:03.181Z,99578.02
2017-09-26T23:42:30.647Z,99576.27
2017-09-26T23:44:58.125Z,99576.13
2017-09-26T23:47:25.608Z,99574.69
2017-09-26T23:49:53.097Z,99577.09
2017-09-26T23:52:20.578Z,99576.98
2017-09-26T23:54:48.172Z,99578.05
2017-09-26T23:57:15.628Z,99579.95
2017-09-26T23:59:43.102Z,99574.36
